• Join FlightAware (Why Join?)
  • Login
  • US Flag 
12:30PM EDT


 

Airport Tracker/Info


-or-


 

Live Flight TrackerFlight Track Log ✈ XOJ549 ✈ 05-May-2013 ✈ KPWK - KSDF

Flight Track Log - Related Links

Times and Time Zones

All times are in EDT time to prevent confusion due to time zone crossing. See the XOJ549 flight status page for this flight to view local times or setup timezone preferences in your user account.

Time Position Orientation Groundspeed Altitude Reporting Facility
EDT Latitude Longitude Course Direction KTS MPH feet Rate Location/Type
09:39AM 42.1333 -87.9000 22° Northeast 171 197 2,400  Level Chicago TRACON
09:39AM 42.1800 -87.8750 22° Northeast 208 239 4,500 1,920 Climbing Chicago Center
09:40AM 42.1853 -87.8061 84° East 230 265 6,100 2,880 Climbing Chicago Center
09:41AM 42.1114 -87.7950 174° South 264 304 10,500 4,200 Climbing Chicago Center
09:42AM 42.0300 -87.7925 179° South 287 330 14,800 2,160 Climbing Chicago Center
09:44AM 41.9314 -87.7861 177° South 348 400 15,000 480 Climbing Chicago Center
09:45AM 41.8178 -87.7758 176° South 337 388 15,900 2,340 Climbing Chicago Center
09:46AM 41.7142 -87.7617 174° South 367 422 19,900 3,300 Climbing Chicago Center
09:47AM 41.6047 -87.7481 175° South 387 445 22,700 2,280 Climbing Chicago Center
09:48AM 41.4911 -87.7328 174° South 404 465 24,600 2,400 Climbing Chicago Center
09:49AM 41.3792 -87.7225 176° South 401 461 27,700 2,100 Climbing Chicago Center
09:50AM 41.2614 -87.7256 181° South 416 479 29,000 600 Climbing Chicago Center
09:51AM 41.1406 -87.7175 177° South 430 495 29,000  Level Chicago Center
09:52AM 41.0219 -87.7008 174° South 429 494 29,000  Level Chicago Center
09:53AM 40.9053 -87.6847 174° South 424 488 29,000  Level Chicago Center
09:54AM 40.7703 -87.6475 168° South 416 479 29,000  Level Chicago Center
09:55AM 40.6589 -87.6108 166° South 413 475 29,000  Level Chicago Center
09:56AM 40.5467 -87.5761 167° South 415 478 29,000  Level Chicago Center
09:57AM 40.4364 -87.5403 166° South 412 474 29,000  Level Chicago Center
09:58AM 40.3250 -87.5067 167° South 412 474 29,000  Level Chicago Center
09:59AM 40.2139 -87.4717 166° South 412 474 29,000  Level Chicago Center
10:00AM 40.0914 -87.4342 167° South 409 471 29,000  Level Chicago Center
10:01AM 40.0242 -87.4133 167° South 405 466 29,000  Level Indianapolis Center
10:02AM 39.8906 -87.3733 167° South 411 473 29,000 -360 Level Indianapolis Center
10:03AM 39.7828 -87.3392 166° South 405 466 28,300 -1,440 Descending Indianapolis Center
10:04AM 39.6767 -87.3072 167° South 399 459 26,100 -2,160 Descending Indianapolis Center
10:05AM 39.5725 -87.2742 166° South 391 450 23,900 -2,100 Descending Indianapolis Center
10:06AM 39.4742 -87.2283 160° South 377 434 21,800 -1,440 Descending Indianapolis Center
10:07AM 39.3928 -87.1297 137° Southeast 339 390 21,000 -420 Descending Indianapolis Center
10:08AM 39.3247 -87.0469 137° Southeast 337 388 21,000  Level Indianapolis Center
10:09AM 39.2544 -86.9597 136° Southeast 350 403 21,000 -180 Level Indianapolis Center
10:10AM 39.1839 -86.8739 137° Southeast 351 404 20,700 -420 Descending Indianapolis Center
10:11AM 39.1128 -86.7869 136° Southeast 328 377 20,200 -540 Descending Indianapolis Center
10:12AM 39.0456 -86.7036 136° Southeast 330 380 19,600 -1,080 Descending Indianapolis Center
10:13AM 38.9767 -86.6208 137° Southeast 335 386 18,000 -1,680 Descending Indianapolis Center
10:14AM 38.9106 -86.5397 136° Southeast 316 364 16,200 -1,620 Descending Indianapolis Center
10:15AM 38.8522 -86.4686 136° Southeast 308 354 14,700 -1,500 Descending Indianapolis Center
10:16AM 38.7903 -86.3953 137° Southeast 303 349 13,100 -1,740 Descending Indianapolis Center
10:17AM 38.7175 -86.3069 137° Southeast 300 345 11,200 -1,560 Descending Indianapolis Center
10:18AM 38.6461 -86.2814 164° South 279 321 9,900 -1,320 Descending Indianapolis Center
10:19AM 38.5742 -86.2583 166° South 265 305 8,500 -1,440 Descending Indianapolis Center
10:20AM 38.4994 -86.2347 166° South 271 312 7,000 -1,440 Descending Indianapolis Center
10:21AM 38.4308 -86.2067 162° South 261 300 5,600 -1,200 Descending Indianapolis Center
10:22AM 38.3803 -86.1636 146° Southeast 223 257 4,600 -780 Descending Indianapolis Center
10:23AM 38.3478 -86.1044 125° Southeast 209 241 4,000 -360 Descending Indianapolis Center
10:24AM 38.3528 -86.0286 85° East 200 230 3,900 -420 Descending Indianapolis Center
10:25AM 38.3908 -85.9811 44° Northeast 196 226 3,200 -480 Descending Indianapolis Center
10:27AM 38.3933 -85.9228 87° East 178 205 3,000 -120 Descending Indianapolis Center
10:28AM 38.3833 -85.8583 101° East 181 208 3,000  Level Indianapolis Center
10:29AM 38.3547 -85.8139 129° Southeast 179 206 3,000  Level Indianapolis Center
10:30AM 38.3153 -85.7894 154° Southeast 165 190 3,100 -300 Climbing Indianapolis Center
10:31AM 38.2736 -85.7764 166° South 159 183 2,400 -720 Descending Indianapolis Center
10:33AM 38.2000 -85.7500 164° South 113 130 900 -720 Descending Louisville TRACON
10:35AM 38.1741 -85.7365 159° South  Level Estimated
10:42AM 38.1741 -85.7365 159° South  Level Estimated